Time;durP1;ratioP1;P1;durP2;ratioP2;P2;SDS_P1;SDS_P2;PMS_P1;PMS_P2;Temp;Humidity;BMP_temperature;BMP_pressure;BME280_temperature;BME280_humidity;BME280_pressure;Samples;Min_cycle;Max_cycle;Signal;HPM_P1;HPM_P2
2021/11/09 00:00:26;;;;;;;13.68;2.53;;;;;;;;;;5070484;28;20016;-43
2021/11/09 00:02:53;;;;;;;11.38;2.10;;;;;;;;;;5070843;28;20032;-55
2021/11/09 00:05:24;;;;;;;12.55;1.88;;;;;;;;;;5071187;28;20020;-54
2021/11/09 00:07:55;;;;;;;12.23;2.10;;;;;;;;;;5063436;28;20497;-51
2021/11/09 00:10:23;;;;;;;14.85;2.60;;;;;;;;;;5063228;28;20028;-50
2021/11/09 00:12:54;;;;;;;12.90;3.55;;;;;;;;;;5059899;28;20036;-46
2021/11/09 00:15:24;;;;;;;31.58;4.45;;;;;;;;;;5065875;28;20016;-51
2021/11/09 00:17:54;;;;;;;26.73;3.72;;;;;;;;;;5061354;28;20048;-47
2021/11/09 00:20:23;;;;;;;23.83;4.40;;;;;;;;;;5063816;28;20027;-47
2021/11/09 00:22:50;;;;;;;25.15;5.13;;;;;;;;;;5056111;28;20032;-49
2021/11/09 00:25:18;;;;;;;28.50;5.30;;;;;;;;;;5065739;28;20869;-47
2021/11/09 00:27:45;;;;;;;37.72;6.07;;;;;;;;;;5059169;28;20442;-54
2021/11/09 00:30:14;;;;;;;32.10;5.38;;;;;;;;;;5053460;28;20021;-48
2021/11/09 00:32:44;;;;;;;29.88;5.28;;;;;;;;;;5059333;28;20077;-46
2021/11/09 00:35:12;;;;;;;31.58;5.93;;;;;;;;;;5059663;28;20108;-50
2021/11/09 00:37:40;;;;;;;28.77;5.50;;;;;;;;;;5060987;28;20080;-43
2021/11/09 00:40:08;;;;;;;34.08;7.07;;;;;;;;;;5064239;28;20074;-41
2021/11/09 00:42:36;;;;;;;51.20;11.25;;;;;;;;;;5046541;28;20033;-51
2021/11/09 00:45:04;;;;;;;58.67;15.10;;;;;;;;;;5057936;28;20023;-50
2021/11/09 00:47:32;;;;;;;78.03;20.63;;;;;;;;;;5056760;28;20049;-51
2021/11/09 00:49:59;;;;;;;93.78;25.13;;;;;;;;;;5069459;28;20044;-48
2021/11/09 00:52:26;;;;;;;100.63;29.85;;;;;;;;;;5063558;28;20093;-51
2021/11/09 00:54:53;;;;;;;110.13;30.63;;;;;;;;;;5057292;28;20036;-56
2021/11/09 00:57:21;;;;;;;115.25;31.75;;;;;;;;;;5070420;28;20102;-48
2021/11/09 00:59:48;;;;;;;116.72;31.45;;;;;;;;;;5071019;28;20028;-47
2021/11/09 01:02:15;;;;;;;110.75;32.67;;;;;;;;;;5060885;28;20051;-35
2021/11/09 01:04:42;;;;;;;112.50;33.05;;;;;;;;;;5049649;28;20484;-50
2021/11/09 01:07:09;;;;;;;84.95;27.73;;;;;;;;;;5056698;28;20538;-37
2021/11/09 01:09:36;;;;;;;105.20;31.25;;;;;;;;;;5059635;28;20554;-47
2021/11/09 01:12:06;;;;;;;98.13;29.52;;;;;;;;;;5055637;28;20026;-35
2021/11/09 01:14:33;;;;;;;96.45;28.70;;;;;;;;;;5061856;28;20055;-44
2021/11/09 01:17:01;;;;;;;95.05;27.48;;;;;;;;;;5042490;28;20385;-37
2021/11/09 01:19:31;;;;;;;83.70;27.33;;;;;;;;;;5060286;28;20416;-49
2021/11/09 01:21:59;;;;;;;94.45;27.30;;;;;;;;;;5060560;28;20073;-47
2021/11/09 01:24:26;;;;;;;82.53;28.20;;;;;;;;;;5061933;28;20025;-48
2021/11/09 01:26:53;;;;;;;85.47;26.25;;;;;;;;;;5057399;28;20044;-45
2021/11/09 01:29:20;;;;;;;79.22;25.55;;;;;;;;;;5060783;28;20051;-52
2021/11/09 01:31:48;;;;;;;75.63;24.80;;;;;;;;;;5064447;28;20021;-51
2021/11/09 01:34:15;;;;;;;77.75;25.13;;;;;;;;;;5069629;28;20025;-50
2021/11/09 01:36:42;;;;;;;75.82;25.10;;;;;;;;;;5067039;28;20024;-56
2021/11/09 01:39:09;;;;;;;77.68;25.10;;;;;;;;;;5053647;28;20021;-51
2021/11/09 01:41:37;;;;;;;78.97;24.85;;;;;;;;;;5058668;28;20029;-48
2021/11/09 01:44:05;;;;;;;72.93;24.30;;;;;;;;;;5059248;28;20031;-51
2021/11/09 01:46:32;;;;;;;65.80;22.98;;;;;;;;;;5058421;28;20021;-54
2021/11/09 01:49:00;;;;;;;65.63;23.70;;;;;;;;;;5057730;28;20131;-53
2021/11/09 01:51:27;;;;;;;68.72;23.63;;;;;;;;;;5055304;28;20413;-54
2021/11/09 01:53:55;;;;;;;64.28;23.02;;;;;;;;;;5057372;28;20058;-50
2021/11/09 01:56:26;;;;;;;64.63;22.23;;;;;;;;;;5057040;28;20036;-54
2021/11/09 01:58:53;;;;;;;69.50;22.13;;;;;;;;;;5054201;28;20021;-47
2021/11/09 02:01:21;;;;;;;76.00;21.25;;;;;;;;;;5056523;28;20037;-41
2021/11/09 02:03:50;;;;;;;58.72;20.20;;;;;;;;;;5057334;28;20373;-48
2021/11/09 02:06:17;;;;;;;53.25;19.38;;;;;;;;;;5058627;28;20020;-46
2021/11/09 02:08:44;;;;;;;67.28;22.13;;;;;;;;;;5063869;28;20024;-47
2021/11/09 02:11:12;;;;;;;59.80;19.63;;;;;;;;;;5056797;28;20021;-46
2021/11/09 02:13:42;;;;;;;55.80;19.95;;;;;;;;;;5058861;28;20017;-49
2021/11/09 02:16:10;;;;;;;53.88;18.30;;;;;;;;;;5067336;28;20033;-51
2021/11/09 02:18:37;;;;;;;56.42;19.00;;;;;;;;;;5057186;28;20438;-51
2021/11/09 02:21:09;;;;;;;60.53;19.52;;;;;;;;;;5051668;28;20032;-50
2021/11/09 02:23:37;;;;;;;66.05;19.52;;;;;;;;;;5051370;28;20017;-47
2021/11/09 02:26:05;;;;;;;73.95;19.35;;;;;;;;;;5064322;28;20036;-44
2021/11/09 02:28:32;;;;;;;54.63;18.23;;;;;;;;;;5052438;28;20090;-44
2021/11/09 02:30:59;;;;;;;67.18;18.85;;;;;;;;;;5052199;28;20075;-48
2021/11/09 02:33:27;;;;;;;66.80;18.20;;;;;;;;;;5051698;28;20036;-45
2021/11/09 02:35:54;;;;;;;71.03;17.27;;;;;;;;;;5051648;28;20024;-50
2021/11/09 02:38:22;;;;;;;59.78;18.90;;;;;;;;;;5051854;28;20028;-49
2021/11/09 02:40:49;;;;;;;58.50;18.45;;;;;;;;;;5052824;28;20033;-50
2021/11/09 02:43:17;;;;;;;54.97;18.90;;;;;;;;;;5052838;28;20033;-48
2021/11/09 02:48:39;;;;;;;51.60;16.35;;;;;;;;;;5053176;28;20115;-48
2021/11/09 02:51:13;;;;;;;52.83;15.82;;;;;;;;;;5053195;28;20037;-44
2021/11/09 02:53:52;;;;;;;47.53;15.95;;;;;;;;;;5052535;28;20600;-44
2021/11/09 02:56:27;;;;;;;47.35;15.77;;;;;;;;;;5053452;28;20488;-50
2021/11/09 02:59:21;;;;;;;54.25;17.00;;;;;;;;;;5052832;28;20095;-50
2021/11/09 03:04:36;;;;;;;52.42;16.48;;;;;;;;;;5052639;28;20017;-49
2021/11/09 03:07:10;;;;;;;45.80;15.40;;;;;;;;;;5053025;28;20029;-50
2021/11/09 03:09:46;;;;;;;43.70;15.13;;;;;;;;;;5052751;28;20056;-48
2021/11/09 03:12:14;;;;;;;42.38;14.27;;;;;;;;;;5052701;28;20021;-42
2021/11/09 03:14:42;;;;;;;47.30;14.85;;;;;;;;;;5052114;28;20032;-36
2021/11/09 03:17:17;;;;;;;45.13;14.38;;;;;;;;;;5053039;28;20029;-36
2021/11/09 03:19:59;;;;;;;46.22;14.20;;;;;;;;;;5052495;28;20025;-37
2021/11/09 03:47:04;;;;;;;38.50;12.57;;;;;;;;;;5052326;28;20055;-35
2021/11/09 03:49:33;;;;;;;38.45;13.43;;;;;;;;;;5051867;28;20051;-36
2021/11/09 03:52:04;;;;;;;30.90;11.48;;;;;;;;;;5051495;28;20476;-36
2021/11/09 03:54:31;;;;;;;31.70;11.50;;;;;;;;;;5051987;28;20024;-39
2021/11/09 04:05:15;;;;;;;35.72;10.85;;;;;;;;;;5047662;28;20048;-42
2021/11/09 04:07:57;;;;;;;28.88;10.75;;;;;;;;;;5051791;28;20116;-36
2021/11/09 04:10:48;;;;;;;;;;;;;;;;;;5052237;28;20029;-38
2021/11/09 04:16:07;;;;;;;28.10;11.07;;;;;;;;;;5051568;28;20440;-35
2021/11/09 04:21:53;;;;;;;25.50;9.60;;;;;;;;;;5051306;28;20056;-38
2021/11/09 04:24:41;;;;;;;27.40;10.45;;;;;;;;;;5050617;28;20037;-36
2021/11/09 04:30:19;;;;;;;28.20;10.75;;;;;;;;;;5051524;28;20025;-38
2021/11/09 04:39:11;;;;;;;27.17;10.32;;;;;;;;;;5051152;28;20027;-41
2021/11/09 04:52:17;;;;;;;21.98;8.93;;;;;;;;;;5051538;28;20555;-46
2021/11/09 05:08:25;;;;;;;21.45;8.13;;;;;;;;;;5055259;28;20040;-44
2021/11/09 05:10:55;;;;;;;20.02;8.73;;;;;;;;;;5055232;28;20060;-37
2021/11/09 05:13:22;;;;;;;19.25;8.48;;;;;;;;;;5054412;28;20467;-36
2021/11/09 05:15:49;;;;;;;24.65;8.07;;;;;;;;;;5054792;28;20496;-36
2021/11/09 05:18:16;;;;;;;19.50;8.20;;;;;;;;;;5055492;28;20021;-36
2021/11/09 05:20:44;;;;;;;24.85;8.70;;;;;;;;;;5054568;28;20021;-39
2021/11/09 05:23:11;;;;;;;18.38;8.48;;;;;;;;;;5054973;28;20029;-41
2021/11/09 05:25:38;;;;;;;22.95;8.07;;;;;;;;;;5054614;28;20021;-39
2021/11/09 05:28:08;;;;;;;18.52;7.38;;;;;;;;;;5054797;28;20029;-37
2021/11/09 05:30:36;;;;;;;18.17;7.82;;;;;;;;;;5054363;28;20020;-48
2021/11/09 05:33:03;;;;;;;20.33;8.25;;;;;;;;;;5054801;28;20028;-48
2021/11/09 05:35:30;;;;;;;19.73;8.60;;;;;;;;;;5054338;28;20025;-39
2021/11/09 05:37:59;;;;;;;17.30;8.10;;;;;;;;;;5054605;28;20551;-38
2021/11/09 05:40:35;;;;;;;18.63;7.88;;;;;;;;;;5053998;28;20017;-44
2021/11/09 05:43:02;;;;;;;17.48;7.40;;;;;;;;;;5054580;28;20029;-49
2021/11/09 05:45:30;;;;;;;18.00;6.47;;;;;;;;;;5054161;28;20029;-44
2021/11/09 05:47:58;;;;;;;16.77;6.97;;;;;;;;;;5054376;28;20025;-45
2021/11/09 05:50:25;;;;;;;18.70;7.28;;;;;;;;;;5053943;28;20056;-41
2021/11/09 05:52:52;;;;;;;18.95;7.03;;;;;;;;;;5054538;28;20431;-48
2021/11/09 05:55:20;;;;;;;17.75;7.13;;;;;;;;;;5053655;28;20031;-46
2021/11/09 05:57:47;;;;;;;19.00;7.18;;;;;;;;;;5054448;28;20488;-40
2021/11/09 06:00:14;;;;;;;16.08;6.70;;;;;;;;;;5053953;28;20027;-44
2021/11/09 06:02:42;;;;;;;20.77;7.47;;;;;;;;;;5054232;28;20477;-46
2021/11/09 06:05:10;;;;;;;16.98;6.75;;;;;;;;;;5053516;28;20031;-44
2021/11/09 06:07:37;;;;;;;15.73;6.55;;;;;;;;;;5053953;28;20056;-46
2021/11/09 06:10:04;;;;;;;15.88;5.90;;;;;;;;;;5053736;28;20070;-47
2021/11/09 06:12:31;;;;;;;18.25;7.03;;;;;;;;;;5053576;28;20029;-44
2021/11/09 06:14:58;;;;;;;12.75;6.25;;;;;;;;;;5054324;28;20397;-47
2021/11/09 06:17:25;;;;;;;15.85;6.57;;;;;;;;;;5053140;28;20025;-46
2021/11/09 06:19:52;;;;;;;14.18;6.07;;;;;;;;;;5053817;28;20017;-46
2021/11/09 06:22:19;;;;;;;20.65;6.88;;;;;;;;;;5052496;28;20044;-46
2021/11/09 06:24:46;;;;;;;13.70;6.07;;;;;;;;;;5053330;28;20155;-45
2021/11/09 06:27:13;;;;;;;13.90;5.80;;;;;;;;;;5053113;28;20437;-46
2021/11/09 06:29:41;;;;;;;16.38;6.55;;;;;;;;;;5054031;28;20028;-49
2021/11/09 06:32:08;;;;;;;15.35;5.85;;;;;;;;;;5053104;28;20934;-40
2021/11/09 06:34:35;;;;;;;13.88;5.95;;;;;;;;;;5053749;28;20032;-40
2021/11/09 06:37:03;;;;;;;14.05;5.32;;;;;;;;;;5053218;28;20024;-44
2021/11/09 06:39:30;;;;;;;13.15;5.90;;;;;;;;;;5053511;28;20025;-47
2021/11/09 06:41:57;;;;;;;12.18;5.60;;;;;;;;;;5052810;28;20033;-44
2021/11/09 06:44:24;;;;;;;13.93;6.13;;;;;;;;;;5053690;28;20043;-40
2021/11/09 06:46:51;;;;;;;14.70;5.50;;;;;;;;;;5053091;28;20428;-44
2021/11/09 06:49:18;;;;;;;11.90;5.40;;;;;;;;;;5053193;28;20084;-47
2021/11/09 06:51:45;;;;;;;13.82;6.05;;;;;;;;;;5053441;28;20036;-47
2021/11/09 06:54:12;;;;;;;13.77;5.97;;;;;;;;;;5052590;28;20083;-45
2021/11/09 06:56:39;;;;;;;10.27;5.13;;;;;;;;;;5053011;28;20032;-47
2021/11/09 06:59:07;;;;;;;14.23;5.35;;;;;;;;;;5052873;28;20472;-45
2021/11/09 07:01:35;;;;;;;11.75;4.70;;;;;;;;;;5053060;28;20048;-43
2021/11/09 07:04:02;;;;;;;12.45;5.20;;;;;;;;;;5052542;28;20017;-43
2021/11/09 07:06:30;;;;;;;10.55;5.28;;;;;;;;;;5052873;28;20388;-41
2021/11/09 07:08:58;;;;;;;11.02;5.38;;;;;;;;;;5052588;28;20071;-45
2021/11/09 07:11:26;;;;;;;10.27;4.78;;;;;;;;;;5052971;28;20017;-43
2021/11/09 07:13:54;;;;;;;11.20;5.38;;;;;;;;;;5052419;28;20024;-44
2021/11/09 07:16:23;;;;;;;8.35;4.32;;;;;;;;;;5052361;28;20016;-47
2021/11/09 07:18:54;;;;;;;10.10;4.95;;;;;;;;;;5051977;28;20021;-46
2021/11/09 07:21:21;;;;;;;12.88;5.50;;;;;;;;;;5052554;28;20425;-46
2021/11/09 07:23:48;;;;;;;14.07;5.07;;;;;;;;;;5052344;28;20021;-48
2021/11/09 07:26:16;;;;;;;13.43;5.68;;;;;;;;;;5052727;28;20063;-47
2021/11/09 07:28:45;;;;;;;12.10;5.25;;;;;;;;;;5051991;28;20028;-48
2021/11/09 07:31:15;;;;;;;10.95;4.65;;;;;;;;;;5052574;28;20025;-45
2021/11/09 07:33:42;;;;;;;8.55;4.32;;;;;;;;;;5052010;28;20029;-36
2021/11/09 07:36:09;;;;;;;14.80;4.80;;;;;;;;;;5034236;28;20032;-44
2021/11/09 07:38:36;;;;;;;9.10;4.32;;;;;;;;;;5034590;28;20025;-47
2021/11/09 07:41:03;;;;;;;15.45;4.32;;;;;;;;;;5051993;28;20060;-46
2021/11/09 07:43:30;;;;;;;14.23;4.68;;;;;;;;;;5052421;28;20021;-49
2021/11/09 07:45:59;;;;;;;10.30;4.47;;;;;;;;;;5051693;28;20059;-38
2021/11/09 07:48:26;;;;;;;8.50;4.03;;;;;;;;;;5052219;28;20465;-44
2021/11/09 07:50:53;;;;;;;9.13;4.20;;;;;;;;;;5051371;28;20076;-42
2021/11/09 07:53:22;;;;;;;12.55;4.55;;;;;;;;;;5052240;28;20474;-45
2021/11/09 07:55:56;;;;;;;9.55;4.03;;;;;;;;;;5051559;28;20465;-46
2021/11/09 07:58:38;;;;;;;10.93;4.40;;;;;;;;;;5051792;28;20075;-40
2021/11/09 08:01:11;;;;;;;9.50;4.03;;;;;;;;;;5051312;28;20120;-39
2021/11/09 08:04:25;;;;;;;8.45;3.95;;;;;;;;;;5051821;28;20497;-45
2021/11/09 08:06:32;;;;;;;8.98;3.85;;;;;;;;;;5043207;28;20056;-46
2021/11/09 08:11:30;;;;;;;13.27;3.85;;;;;;;;;;5051777;28;20113;-45
2021/11/09 08:13:57;;;;;;;7.05;3.50;;;;;;;;;;5051368;28;20047;-48
2021/11/09 08:16:24;;;;;;;10.48;4.38;;;;;;;;;;5051403;28;20507;-46
2021/11/09 08:18:51;;;;;;;7.45;3.50;;;;;;;;;;5051727;28;20504;-45
2021/11/09 08:21:18;;;;;;;7.47;3.42;;;;;;;;;;5051248;28;20120;-50
2021/11/09 08:23:49;;;;;;;8.00;3.63;;;;;;;;;;5051872;28;20025;-46
2021/11/09 08:26:21;;;;;;;9.07;3.67;;;;;;;;;;5051162;28;20449;-42
2021/11/09 08:28:48;;;;;;;7.60;3.50;;;;;;;;;;5051271;28;20412;-47
2021/11/09 08:31:19;;;;;;;12.60;3.65;;;;;;;;;;5051132;28;20025;-35
2021/11/09 08:33:46;;;;;;;7.25;3.70;;;;;;;;;;5051545;28;20029;-36
2021/11/09 08:36:15;;;;;;;7.72;3.47;;;;;;;;;;5051576;28;20032;-36
2021/11/09 08:38:46;;;;;;;9.25;4.20;;;;;;;;;;5050802;28;20484;-37
2021/11/09 08:41:13;;;;;;;11.10;3.65;;;;;;;;;;5051021;28;20044;-36
2021/11/09 08:43:49;;;;;;;9.35;3.40;;;;;;;;;;5051209;28;20033;-36
2021/11/09 08:46:19;;;;;;;9.10;3.47;;;;;;;;;;5051433;28;20440;-37
2021/11/09 08:48:49;;;;;;;9.15;3.45;;;;;;;;;;5050343;28;20107;-36
2021/11/09 08:51:21;;;;;;;8.98;3.90;;;;;;;;;;5051057;28;20466;-37
2021/11/09 08:53:57;;;;;;;7.90;3.50;;;;;;;;;;5050803;28;20478;-37
2021/11/09 08:56:35;;;;;;;12.00;3.10;;;;;;;;;;5051386;28;20082;-37
2021/11/09 09:04:32;;;;;;;17.42;3.53;;;;;;;;;;5050961;28;20219;-36
2021/11/09 09:07:02;;;;;;;8.63;3.33;;;;;;;;;;5051152;28;20068;-44
2021/11/09 09:09:29;;;;;;;12.02;3.10;;;;;;;;;;5050302;28;20086;-42
2021/11/09 09:11:56;;;;;;;9.10;3.42;;;;;;;;;;5051201;28;20027;-34
2021/11/09 09:14:24;;;;;;;9.25;3.55;;;;;;;;;;5050635;28;20054;-39
2021/11/09 09:16:51;;;;;;;10.98;3.03;;;;;;;;;;5051047;28;20057;-38
2021/11/09 09:19:25;;;;;;;7.70;3.05;;;;;;;;;;5050672;28;20101;-34
2021/11/09 09:27:29;;;;;;;10.13;3.55;;;;;;;;;;5051267;28;20029;-34
2021/11/09 09:57:12;;;;;;;5.80;2.42;;;;;;;;;;5054889;28;20544;-45
2021/11/09 09:59:41;;;;;;;8.75;2.40;;;;;;;;;;5054511;28;20029;-44
2021/11/09 10:02:13;;;;;;;9.82;3.20;;;;;;;;;;5053010;28;20029;-45
2021/11/09 10:04:41;;;;;;;8.60;2.67;;;;;;;;;;5053892;28;20056;-44
2021/11/09 10:07:09;;;;;;;10.73;3.03;;;;;;;;;;5054852;28;20067;-43
2021/11/09 10:09:44;;;;;;;8.18;2.53;;;;;;;;;;5054521;28;20039;-48
2021/11/09 10:12:26;;;;;;;8.45;2.80;;;;;;;;;;5054580;28;20024;-44
2021/11/09 10:14:55;;;;;;;7.55;2.63;;;;;;;;;;5036600;28;20083;-45
2021/11/09 10:17:24;;;;;;;9.88;3.05;;;;;;;;;;5036540;28;20013;-45
2021/11/09 10:19:51;;;;;;;8.38;2.30;;;;;;;;;;5054335;28;20024;-44
2021/11/09 10:22:23;;;;;;;11.95;3.55;;;;;;;;;;5054200;28;20512;-45
2021/11/09 10:25:10;;;;;;;8.25;2.90;;;;;;;;;;5054260;28;20067;-45
2021/11/09 10:27:38;;;;;;;8.73;2.70;;;;;;;;;;5054192;28;20048;-47
2021/11/09 10:30:10;;;;;;;8.05;2.63;;;;;;;;;;5054200;28;20025;-44
2021/11/09 10:32:38;;;;;;;11.55;2.83;;;;;;;;;;5053721;28;20021;-46
2021/11/09 10:35:08;;;;;;;5.90;2.22;;;;;;;;;;5071208;28;20043;-44
2021/11/09 10:37:37;;;;;;;4.60;2.08;;;;;;;;;;5053993;28;20467;-49
2021/11/09 10:40:06;;;;;;;10.27;2.75;;;;;;;;;;5054018;28;20416;-48
2021/11/09 10:42:38;;;;;;;8.00;2.55;;;;;;;;;;5064858;28;20388;-49
2021/11/09 10:45:10;;;;;;;7.95;2.53;;;;;;;;;;5073830;28;20404;-49
2021/11/09 10:47:44;;;;;;;8.02;2.40;;;;;;;;;;5073485;28;20017;-51
2021/11/09 10:50:21;;;;;;;10.98;3.13;;;;;;;;;;5073440;28;20431;-46
2021/11/09 10:52:49;;;;;;;7.63;2.58;;;;;;;;;;5073776;28;20096;-46
2021/11/09 10:55:35;;;;;;;8.07;2.65;;;;;;;;;;5073766;28;20515;-48
2021/11/09 11:00:56;;;;;;;10.82;2.38;;;;;;;;;;5073710;28;20503;-50
2021/11/09 11:06:22;;;;;;;5.95;2.20;;;;;;;;;;5073770;28;20037;-51
2021/11/09 11:08:56;;;;;;;8.50;2.53;;;;;;;;;;5061057;28;20127;-46
2021/11/09 11:11:23;;;;;;;8.35;2.75;;;;;;;;;;5072709;28;20389;-59
2021/11/09 11:14:10;;;;;;;26.50;2.92;;;;;;;;;;5072787;28;20016;-58
2021/11/09 11:16:41;;;;;;;11.30;2.60;;;;;;;;;;5072687;28;20029;-53
2021/11/09 11:19:08;;;;;;;16.75;2.38;;;;;;;;;;5072504;28;20041;-40
2021/11/09 11:21:35;;;;;;;15.05;2.50;;;;;;;;;;5072811;28;20032;-43
2021/11/09 11:24:03;;;;;;;255.57;24.10;;;;;;;;;;5073227;28;20017;-42
2021/11/09 11:26:30;;;;;;;353.10;33.03;;;;;;;;;;5072966;28;20020;-41
2021/11/09 11:28:58;;;;;;;135.93;15.85;;;;;;;;;;5072143;28;20028;-41
2021/11/09 11:31:28;;;;;;;96.00;11.68;;;;;;;;;;5072282;28;20591;-42
2021/11/09 11:33:55;;;;;;;21.13;2.95;;;;;;;;;;5072094;28;20020;-43
2021/11/09 11:36:21;;;;;;;17.23;2.72;;;;;;;;;;5072576;28;20361;-43
2021/11/09 11:38:50;;;;;;;19.58;3.63;;;;;;;;;;5072050;28;20023;-46
2021/11/09 11:41:17;;;;;;;16.80;2.85;;;;;;;;;;5072208;28;20480;-41
2021/11/09 11:43:44;;;;;;;23.58;3.67;;;;;;;;;;5065395;28;20138;-41
2021/11/09 11:46:12;;;;;;;15.00;2.80;;;;;;;;;;5068209;28;20036;-42
2021/11/09 11:48:57;;;;;;;16.77;2.83;;;;;;;;;;5072425;28;20503;-43
2021/11/09 11:51:25;;;;;;;18.63;2.47;;;;;;;;;;5071286;28;20052;-42
2021/11/09 11:53:55;;;;;;;22.73;3.88;;;;;;;;;;5072326;28;20035;-44
2021/11/09 11:56:44;;;;;;;16.05;2.83;;;;;;;;;;5072201;28;20486;-43
2021/11/09 11:59:35;;;;;;;10.55;2.70;;;;;;;;;;5068499;28;20115;-40
2021/11/09 12:02:06;;;;;;;11.63;2.58;;;;;;;;;;5071072;28;20035;-39
2021/11/09 12:04:43;;;;;;;16.02;3.17;;;;;;;;;;5053225;28;20388;-42
2021/11/09 12:07:20;;;;;;;14.40;2.63;;;;;;;;;;5071883;28;20021;-41
2021/11/09 12:09:48;;;;;;;19.25;3.15;;;;;;;;;;5072142;28;20009;-39
2021/11/09 12:12:15;;;;;;;17.73;3.35;;;;;;;;;;5071415;28;20047;-39
2021/11/09 12:15:02;;;;;;;20.20;3.00;;;;;;;;;;5071432;28;20417;-41
2021/11/09 12:17:32;;;;;;;15.98;3.10;;;;;;;;;;5071774;28;20099;-41
2021/11/09 12:20:04;;;;;;;16.25;2.65;;;;;;;;;;5072126;28;20059;-40
2021/11/09 12:22:37;;;;;;;15.77;3.35;;;;;;;;;;5071462;28;20527;-42
2021/11/09 12:25:05;;;;;;;17.55;2.75;;;;;;;;;;5070880;28;20021;-40
2021/11/09 12:27:56;;;;;;;12.52;2.60;;;;;;;;;;5071771;28;20032;-41
2021/11/09 12:30:38;;;;;;;11.98;2.60;;;;;;;;;;5062475;28;20028;-43
2021/11/09 12:33:38;;;;;;;11.82;2.95;;;;;;;;;;5071974;28;20055;-41
2021/11/09 12:36:06;;;;;;;16.30;2.72;;;;;;;;;;5053030;28;20032;-40
2021/11/09 12:38:35;;;;;;;17.20;2.90;;;;;;;;;;5071165;28;20012;-41
2021/11/09 12:41:12;;;;;;;11.63;2.10;;;;;;;;;;5071088;28;20032;-38
2021/11/09 12:43:46;;;;;;;12.45;2.33;;;;;;;;;;5071858;28;20028;-42
2021/11/09 12:46:22;;;;;;;11.52;2.50;;;;;;;;;;5070631;28;20012;-40
2021/11/09 12:48:55;;;;;;;15.52;2.53;;;;;;;;;;5071676;28;20016;-38
2021/11/09 12:51:24;;;;;;;23.70;2.67;;;;;;;;;;5071187;28;20044;-39
2021/11/09 12:53:52;;;;;;;15.98;3.03;;;;;;;;;;5071662;28;20025;-39
2021/11/09 12:58:52;;;;;;;17.17;2.88;;;;;;;;;;5040938;28;20053;-39
2021/11/09 13:01:29;;;;;;;12.90;2.60;;;;;;;;;;5051056;28;20029;-40
2021/11/09 13:04:04;;;;;;;12.40;2.60;;;;;;;;;;5051334;28;20044;-38
2021/11/09 13:06:55;;;;;;;18.17;2.80;;;;;;;;;;5050951;28;20114;-41
2021/11/09 13:09:31;;;;;;;11.40;2.28;;;;;;;;;;5051343;28;20025;-39
2021/11/09 13:12:03;;;;;;;11.38;2.45;;;;;;;;;;5051178;28;20025;-43
2021/11/09 13:14:49;;;;;;;12.75;2.40;;;;;;;;;;5051624;28;20029;-39
2021/11/09 13:17:16;;;;;;;16.23;2.72;;;;;;;;;;5055167;28;20519;-39
2021/11/09 13:19:44;;;;;;;11.00;2.70;;;;;;;;;;5055056;28;20029;-41
2021/11/09 13:22:16;;;;;;;11.98;2.50;;;;;;;;;;5054560;28;20451;-42
2021/11/09 13:24:56;;;;;;;13.15;2.65;;;;;;;;;;5055148;28;20033;-41
2021/11/09 13:27:34;;;;;;;41.65;4.32;;;;;;;;;;5055139;28;20090;-39
2021/11/09 13:30:07;;;;;;;56.55;5.32;;;;;;;;;;5054291;28;20025;-40
2021/11/09 13:32:35;;;;;;;54.88;4.55;;;;;;;;;;5054947;28;20024;-39
2021/11/09 13:35:03;;;;;;;49.15;4.18;;;;;;;;;;5054933;28;20105;-39
2021/11/09 13:37:36;;;;;;;44.88;3.38;;;;;;;;;;5054531;28;20029;-39
2021/11/09 13:40:04;;;;;;;44.67;4.57;;;;;;;;;;5053711;28;20021;-40
2021/11/09 13:42:31;;;;;;;18.80;2.90;;;;;;;;;;5054533;28;20040;-40
2021/11/09 13:44:59;;;;;;;15.45;3.20;;;;;;;;;;5054594;28;20472;-40
2021/11/09 13:47:35;;;;;;;20.30;3.03;;;;;;;;;;5054791;28;20468;-41
2021/11/09 13:50:06;;;;;;;16.17;2.40;;;;;;;;;;5054089;28;20124;-39
2021/11/09 13:52:34;;;;;;;17.02;3.00;;;;;;;;;;5054276;28;20036;-38
2021/11/09 13:55:01;;;;;;;15.70;2.38;;;;;;;;;;5054973;28;20448;-41
2021/11/09 13:57:29;;;;;;;18.88;2.60;;;;;;;;;;5046837;28;20051;-39
2021/11/09 13:59:56;;;;;;;8.45;1.70;;;;;;;;;;5035195;28;20026;-40
2021/11/09 14:02:32;;;;;;;9.10;2.00;;;;;;;;;;5035672;28;20076;-40
2021/11/09 14:08:20;;;;;;;16.55;2.70;;;;;;;;;;5027836;28;20056;-38
2021/11/09 14:16:38;;;;;;;8.50;2.10;;;;;;;;;;5051660;28;20028;-41
2021/11/09 14:19:11;;;;;;;15.35;2.60;;;;;;;;;;5048774;28;20590;-40
2021/11/09 14:21:40;;;;;;;18.75;2.30;;;;;;;;;;5039619;28;20041;-41
2021/11/09 14:24:11;;;;;;;25.02;2.70;;;;;;;;;;5040187;28;20028;-41
2021/11/09 14:26:40;;;;;;;16.63;2.73;;;;;;;;;;5042446;28;20476;-38
2021/11/09 14:29:23;;;;;;;16.88;2.35;;;;;;;;;;5036114;28;20026;-42
2021/11/09 14:31:58;;;;;;;24.17;2.67;;;;;;;;;;5038759;28;20033;-39
2021/11/09 14:34:29;;;;;;;23.55;3.13;;;;;;;;;;5037387;28;20036;-42
2021/11/09 14:37:30;;;;;;;14.73;3.63;;;;;;;;;;5052054;28;20481;-42
2021/11/09 14:40:17;;;;;;;10.85;2.63;;;;;;;;;;5003451;28;20077;-42
2021/11/09 14:45:35;;;;;;;18.95;2.53;;;;;;;;;;5036654;28;20080;-43
2021/11/09 14:48:09;;;;;;;23.33;3.10;;;;;;;;;;5038302;28;20537;-44
2021/11/09 14:50:40;;;;;;;24.63;2.35;;;;;;;;;;5044771;28;20066;-42
2021/11/09 14:53:09;;;;;;;29.97;2.77;;;;;;;;;;5040653;28;20026;-44
2021/11/09 14:55:49;;;;;;;25.65;3.30;;;;;;;;;;5043893;28;20078;-43
2021/11/09 14:58:25;;;;;;;19.70;3.33;;;;;;;;;;5041005;28;20033;-43
2021/11/09 15:00:55;;;;;;;22.10;3.10;;;;;;;;;;5040350;28;20555;-43
2021/11/09 15:03:23;;;;;;;33.60;4.53;;;;;;;;;;5039728;28;20040;-42
2021/11/09 15:05:51;;;;;;;39.53;5.40;;;;;;;;;;5033942;28;20049;-43
2021/11/09 15:08:29;;;;;;;44.42;7.30;;;;;;;;;;5048553;28;20029;-44
2021/11/09 15:11:08;;;;;;;46.42;8.38;;;;;;;;;;5048223;28;20425;-42
2021/11/09 15:25:26;;;;;;;62.05;9.60;;;;;;;;;;5047429;28;20404;-41
2021/11/09 15:27:34;;;;;;;50.63;9.77;;;;;;;;;;5027718;28;20083;-44
2021/11/09 15:30:06;;;;;;;52.15;9.75;;;;;;;;;;5041007;28;20941;-44
2021/11/09 15:32:35;;;;;;;56.87;10.77;;;;;;;;;;5043277;28;20033;-40
2021/11/09 15:37:52;;;;;;;40.15;9.25;;;;;;;;;;5044791;28;20031;-42
2021/11/09 15:40:21;;;;;;;42.53;9.25;;;;;;;;;;5038980;28;20079;-40
2021/11/09 15:42:49;;;;;;;47.13;9.75;;;;;;;;;;5049085;28;20039;-44
2021/11/09 15:45:17;;;;;;;54.25;8.93;;;;;;;;;;5043542;28;20025;-42
2021/11/09 15:47:44;;;;;;;39.13;8.60;;;;;;;;;;5040071;28;20030;-42
2021/11/09 15:50:11;;;;;;;45.30;8.65;;;;;;;;;;5038762;28;20033;-42
2021/11/09 15:52:41;;;;;;;50.20;7.70;;;;;;;;;;5045412;28;20057;-44
2021/11/09 15:55:09;;;;;;;50.95;9.38;;;;;;;;;;5030772;28;20071;-41
2021/11/09 15:57:37;;;;;;;39.33;8.20;;;;;;;;;;5046115;28;20041;-41
2021/11/09 16:00:08;;;;;;;45.67;8.57;;;;;;;;;;5034553;28;20730;-40
2021/11/09 16:02:36;;;;;;;51.88;8.60;;;;;;;;;;5038137;28;20404;-42
2021/11/09 16:05:05;;;;;;;45.15;8.85;;;;;;;;;;5035351;28;20029;-40
2021/11/09 16:07:32;;;;;;;43.97;8.43;;;;;;;;;;5030254;28;20497;-44
2021/11/09 16:10:00;;;;;;;42.63;7.70;;;;;;;;;;5033209;28;20033;-45
2021/11/09 16:12:28;;;;;;;36.92;7.75;;;;;;;;;;5031452;28;20025;-47
2021/11/09 16:14:56;;;;;;;49.65;9.45;;;;;;;;;;5031844;28;20465;-43
2021/11/09 16:17:23;;;;;;;39.20;7.57;;;;;;;;;;5044697;28;20123;-43
2021/11/09 16:19:50;;;;;;;37.78;6.97;;;;;;;;;;5050714;28;20043;-44
2021/11/09 16:22:33;;;;;;;35.13;6.65;;;;;;;;;;5051668;28;20047;-42
2021/11/09 16:25:00;;;;;;;34.10;7.72;;;;;;;;;;5051626;28;20049;-43
2021/11/09 16:27:27;;;;;;;34.00;6.35;;;;;;;;;;5052004;28;20075;-43
2021/11/09 16:29:57;;;;;;;41.47;7.13;;;;;;;;;;5049196;28;20024;-44
2021/11/09 16:32:26;;;;;;;40.88;7.10;;;;;;;;;;5039099;28;20401;-46
2021/11/09 16:37:40;;;;;;;42.97;6.35;;;;;;;;;;5031702;28;20101;-44
2021/11/09 16:40:10;;;;;;;42.55;8.00;;;;;;;;;;5037649;28;20601;-43
2021/11/09 16:42:41;;;;;;;37.88;6.22;;;;;;;;;;5050645;28;20037;-41
2021/11/09 16:45:09;;;;;;;41.20;7.03;;;;;;;;;;5051951;28;20029;-44
2021/11/09 16:47:37;;;;;;;36.13;5.65;;;;;;;;;;5051301;28;20021;-44
2021/11/09 16:50:34;;;;;;;35.40;6.38;;;;;;;;;;5051536;28;20048;-42
2021/11/09 16:52:58;;;;;;;37.83;5.78;;;;;;;;;;5050208;28;20044;-50
2021/11/09 16:58:18;;;;;;;27.83;6.07;;;;;;;;;;5051086;28;20124;-52
2021/11/09 17:00:56;;;;;;;31.20;5.32;;;;;;;;;;5051349;28;20048;-44
2021/11/09 18:15:12;;;;;;;18.10;3.95;;;;;;;;;;5054608;28;20036;-46
2021/11/09 18:20:07;;;;;;;27.15;3.97;;;;;;;;;;5053693;28;20095;-46
2021/11/09 18:22:47;;;;;;;32.38;3.53;;;;;;;;;;5054256;28;20033;-46
2021/11/09 18:25:15;;;;;;;29.30;4.18;;;;;;;;;;5052591;28;20067;-45
2021/11/09 18:27:43;;;;;;;28.90;3.70;;;;;;;;;;5054001;28;20053;-48
2021/11/09 18:30:12;;;;;;;23.27;3.53;;;;;;;;;;5051682;28;20029;-44
2021/11/09 18:32:39;;;;;;;19.27;3.80;;;;;;;;;;5054190;28;20082;-47
2021/11/09 18:35:10;;;;;;;26.60;3.80;;;;;;;;;;5053702;28;20391;-42
2021/11/09 18:37:37;;;;;;;26.75;3.90;;;;;;;;;;5052689;28;20053;-45
2021/11/09 18:40:06;;;;;;;24.73;4.03;;;;;;;;;;5052847;28;20032;-45